MSC Istanbul — D5LL2 — position and weather

sailwx.info

Track history (hours):
 
Tides and Currents Weather Stations Pressure Air Temp Water Temp Dewpoint Dewpoint Depression Visibility Wind Speed Wind Dir Waves Ship Positions

MSC Istanbul

Last reported at 2018-Feb-23 06:53 UTC. Time now 2018-Feb-23 18:48 UTC.
Position N 38°36' E 008°33'.

Length 399 m; draft 13.1 m.

Type: Ship (hazmat cat A). MMSI: 636017537.

Date/timePositionNaut miles runAvg speedWind from/ knotsBaromVisibWave heightAir tempDewpointWater temp
2018-Feb-23 06:53N 38°36' E 008°33'818.9
2018-Feb-23 06:28N 38°32' E 008°42'26818.9
2018-Feb-22 16:20N 36°14' E 013°31'719.1
2018-Feb-22 15:58N 36°11' E 013°38'919.3
2018-Feb-22 15:30N 36°06' E 013°47'1019.2
2018-Feb-22 15:00N 36°00' E 013°57'919.0
2018-Feb-22 14:30N 35°55' E 014°07'1019.5
2018-Feb-22 14:00N 35°50' E 014°17'918.3
2018-Feb-22 13:30N 35°45' E 014°26'815.6
2018-Feb-22 12:59N 35°46' E 014°36'5 0.2
2018-Feb-21 15:35N 35°49' E 014°33'0 0.8
2018-Feb-21 15:25N 35°49' E 014°33'1 3.4
2018-Feb-21 15:00N 35°48' E 014°34'2 4.0
2018-Feb-21 14:29N 35°47' E 014°35'0 0.7
2018-Feb-21 14:00N 35°47' E 014°36'1 1.8
2018-Feb-21 13:29N 35°46' E 014°37'2 3.5
2018-Feb-21 13:00N 35°46' E 014°39'1 2.8
2018-Feb-21 12:30N 35°45' E 014°40'1 2.7
2018-Feb-21 12:00N 35°45' E 014°42'7 9.8
2018-Feb-21 11:17N 35°44' E 014°50'  
Track history (hours):
 
Tides and Currents Weather Stations Pressure Air Temp Water Temp Dewpoint Dewpoint Depression Visibility Wind Speed Wind Dir Waves Ship Positions

MSC Istanbul

Last reported at 2018-Feb-23 06:53 UTC. Time now 2018-Feb-23 18:48 UTC.
Position N 38°36' E 008°33'.

Length 399 m; draft 13.1 m.

Type: Ship (hazmat cat A). MMSI: 636017537.

Date/timePositionNaut miles runAvg speedWind from/ knotsBaromVisibWave heightAir tempDewpointWater temp
2018-Feb-23 06:53N 38°36' E 008°33'818.9
2018-Feb-23 06:28N 38°32' E 008°42'26818.9
2018-Feb-22 16:20N 36°14' E 013°31'719.1
2018-Feb-22 15:58N 36°11' E 013°38'919.3
2018-Feb-22 15:30N 36°06' E 013°47'1019.2
2018-Feb-22 15:00N 36°00' E 013°57'919.0
2018-Feb-22 14:30N 35°55' E 014°07'1019.5
2018-Feb-22 14:00N 35°50' E 014°17'918.3
2018-Feb-22 13:30N 35°45' E 014°26'815.6
2018-Feb-22 12:59N 35°46' E 014°36'5 0.2
2018-Feb-21 15:35N 35°49' E 014°33'0 0.8
2018-Feb-21 15:25N 35°49' E 014°33'1 3.4
2018-Feb-21 15:00N 35°48' E 014°34'2 4.0
2018-Feb-21 14:29N 35°47' E 014°35'0 0.7
2018-Feb-21 14:00N 35°47' E 014°36'1 1.8
2018-Feb-21 13:29N 35°46' E 014°37'2 3.5
2018-Feb-21 13:00N 35°46' E 014°39'1 2.8
2018-Feb-21 12:30N 35°45' E 014°40'1 2.7
2018-Feb-21 12:00N 35°45' E 014°42'7 9.8
2018-Feb-21 11:17N 35°44' E 014°50'  

Dump ship's entire track history